Iver Foss — WYE6442 — position and weather

sailwx.info

Track history (hours):
 
Tides and Currents Weather Stations Pressure Air Temp Water Temp Dewpoint Dewpoint Depression Visibility Wind Speed Wind Dir Waves Ship Positions

Iver Foss

Owner: FOSS MARITIME CO, SEATTLE, WA. More information available from US FCC via Universal Licensing System and Coast Guard Vessel Documentation Center.

Last reported at 2015-Jun-07 06:17 UTC. Time now 2015-Jul-06 17:51 UTC.
Position N 51°33' W 127°52'.
Warning: this ship's position is 29 days out of date.

Type: Tug. MMSI: 368351000.

Date/timePositionNaut miles runAvg speedWind from/ knotsBaromVisibWave heightAir tempDewpointWater temp
2015-Jun-07 06:17N 51°33' W 127°52'17 9.9
2015-Jun-07 04:31N 51°15' W 127°53'1010.1
2015-Jun-07 03:33N 51°06' W 127°46'1111.2
2015-Jun-07 02:33N 50°59' W 127°33'1111.2
2015-Jun-07 01:33N 50°52' W 127°18'1110.6
2015-Jun-07 00:33N 50°47' W 127°04'1010.0
2015-Jun-06 23:32N 50°40' W 126°52'9 9.4
2015-Jun-06 22:32N 50°34' W 126°41'11 9.7
2015-Jun-06 21:22N 50°30' W 126°24'12311.0
2015-Jun-06 10:13N 49°19' W 123°49'710.3
2015-Jun-06 09:33N 49°15' W 123°41'1010.3
2015-Jun-06 08:33N 49°09' W 123°28'10 9.8
2015-Jun-06 07:33N 49°02' W 123°17'10 9.9
2015-Jun-06 06:33N 48°56' W 123°06'1111.1
2015-Jun-06 05:33N 48°48' W 122°53'1110.8
2015-Jun-06 04:34N 48°40' W 122°42'1212.2
2015-Jun-06 03:32N 48°28' W 122°44'30 7.5
2015-Jun-05 23:33N 47°58' W 122°34'1 8.1
2015-Jun-05 23:29N 47°58' W 122°34'8 8.5
2015-Jun-05 22:34N 47°52' W 122°27'110.0
2015-Jun-05 22:29N 47°51' W 122°27'910.3
2015-Jun-05 21:33N 47°41' W 122°27'1 9.9
2015-Jun-05 21:29N 47°41' W 122°27'7 6.8
2015-Jun-05 20:31N 47°35' W 122°21'0 0.0
2015-Jun-05 20:13N 47°35' W 122°21'0 0.0
2015-Jun-05 19:31N 47°35' W 122°21'0 0.0
2015-Jun-05 19:13N 47°35' W 122°21'0 0.0
2015-Jun-05 18:31N 47°35' W 122°21'0 0.0
2015-Jun-05 18:28N 47°35' W 122°21'0 0.0
2015-Jun-05 17:28N 47°35' W 122°21'0 0.1
2015-Jun-05 17:22N 47°35' W 122°21'3 3.5
2015-Jun-05 16:33N 47°38' W 122°23'0 0.0
2015-Jun-05 16:32N 47°38' W 122°23'0 0.0
2015-Jun-05 15:33N 47°38' W 122°23'0 0.0
2015-Jun-05 15:31N 47°38' W 122°23'0 0.0
2015-Jun-05 14:33N 47°38' W 122°23'0 0.0
2015-Jun-05 14:31N 47°38' W 122°23'0 0.0
2015-Jun-05 13:33N 47°38' W 122°23'0 0.0
2015-Jun-05 12:58N 47°38' W 122°23'0 0.0
2015-Jun-05 12:33N 47°38' W 122°23'0 0.0
2015-Jun-05 12:33N 47°38' W 122°23'0 0.0
2015-Jun-05 11:33N 47°38' W 122°23'0 0.0
2015-Jun-05 11:33N 47°38' W 122°23'0 0.0
2015-Jun-05 10:33N 47°38' W 122°23'0 0.0
2015-Jun-05 10:32N 47°38' W 122°23'0 0.0
2015-Jun-05 09:33N 47°38' W 122°23'0 0.0
2015-Jun-05 09:32N 47°38' W 122°23'0 0.0
2015-Jun-05 08:33N 47°38' W 122°23'0 0.0
2015-Jun-05 08:31N 47°38' W 122°23'0 0.0
2015-Jun-05 07:33N 47°38' W 122°23'0 0.0
2015-Jun-05 07:31N 47°38' W 122°23'0 0.0
2015-Jun-05 06:33N 47°38' W 122°23'0 0.1
2015-Jun-05 06:30N 47°38' W 122°23'0 0.0
2015-Jun-05 06:05N 47°38' W 122°23'0 0.0
2015-Jun-05 05:33N 47°38' W 122°23'0 0.0
2015-Jun-05 04:33N 47°38' W 122°23'0 0.0
2015-Jun-05 04:30N 47°38' W 122°23'0 0.0
2015-Jun-05 03:33N 47°38' W 122°23'0 0.1
2015-Jun-05 03:30N 47°38' W 122°23'0 0.0
2015-Jun-05 02:33N 47°38' W 122°23'0 0.0
2015-Jun-05 02:30N 47°38' W 122°23'0 0.0
2015-Jun-05 01:33N 47°38' W 122°23'0 0.0
2015-Jun-05 01:29N 47°38' W 122°23'0 0.0
2015-Jun-05 00:33N 47°38' W 122°23'0 0.0
2015-Jun-05 00:29N 47°38' W 122°23'0 0.0
2015-Jun-04 23:34N 47°38' W 122°23'0 0.0
2015-Jun-04 23:33N 47°38' W 122°23'0 0.0
2015-Jun-04 22:33N 47°38' W 122°23'0 0.0
2015-Jun-04 22:33N 47°38' W 122°23'0 0.0
2015-Jun-04 21:33N 47°38' W 122°23'0 0.0
2015-Jun-04 21:07N 47°38' W 122°23'0 0.0
2015-Jun-04 20:33N 47°38' W 122°23'0 0.0
2015-Jun-04 20:32N 47°38' W 122°23'0 0.4
2015-Jun-04 19:34N 47°37' W 122°23'0 8.7
2015-Jun-04 19:32N 47°37' W 122°23'1 0.5
2015-Jun-04 18:33N 47°37' W 122°23'0 5.0
2015-Jun-04 18:32N 47°37' W 122°23'2 2.1
2015-Jun-04 17:33N 47°38' W 122°25'010.6
2015-Jun-04 17:31N 47°38' W 122°26'2 2.3
2015-Jun-04 16:34N 47°40' W 122°24'0 2.8
2015-Jun-04 16:30N 47°40' W 122°23'1 1.0
2015-Jun-04 15:16N 47°39' W 122°22'0 0.0
2015-Jun-04 14:43N 47°39' W 122°22'0 0.0
2015-Jun-04 14:28N 47°39' W 122°22'0 0.0
2015-Jun-04 14:28N 47°39' W 122°22'0 0.0
2015-Jun-04 13:25N 47°39' W 122°22'0 0.0
2015-Jun-04 12:25N 47°39' W 122°22'0 0.0
2015-Jun-04 11:37N 47°39' W 122°22'0 0.0
2015-Jun-04 11:28N 47°39' W 122°22'0 0.0
2015-Jun-04 11:22N 47°39' W 122°22'0 0.0
2015-Jun-04 10:19N 47°39' W 122°22'0 0.0
2015-Jun-04 10:07N 47°39' W 122°22'0 0.0
2015-Jun-04 09:07N 47°39' W 122°22'0 0.0
2015-Jun-04 09:01N 47°39' W 122°22'0 0.0
2015-Jun-04 08:31N 47°39' W 122°22'0 0.0
2015-Jun-04 07:31N 47°39' W 122°22'0 0.0
2015-Jun-04 06:40N 47°39' W 122°22'0 0.0
2015-Jun-04 06:31N 47°39' W 122°22'0 0.0
2015-Jun-04 05:40N 47°39' W 122°22'0 0.0
2015-Jun-04 05:31N 47°39' W 122°22'0 0.0
2015-Jun-04 04:31N 47°39' W 122°22'0 0.0
2015-Jun-04 03:19N 47°39' W 122°22'0 0.0
2015-Jun-04 03:13N 47°39' W 122°22'0 0.0
2015-Jun-04 02:28N 47°39' W 122°22'0 0.0
2015-Jun-04 01:46N 47°39' W 122°22'0 0.0
2015-Jun-04 01:31N 47°39' W 122°22'0 0.0
2015-Jun-04 01:31N 47°39' W 122°22'0 0.0
2015-Jun-04 00:25N 47°39' W 122°22'0 0.0
2015-Jun-04 00:25N 47°39' W 122°22'0 0.0
2015-Jun-03 23:33N 47°39' W 122°22'0 0.0
2015-Jun-03 23:31N 47°39' W 122°22'0 0.0
2015-Jun-03 22:33N 47°39' W 122°22'0 0.0
2015-Jun-03 22:31N 47°39' W 122°22'0 0.0
2015-Jun-03 21:33N 47°39' W 122°22'0 0.0
2015-Jun-03 21:26N 47°39' W 122°22'0 0.0
2015-Jun-03 20:33N 47°39' W 122°22'0 0.0
2015-Jun-03 20:30N 47°39' W 122°22'0 0.0
2015-Jun-03 19:30N 47°39' W 122°22'0 0.0
2015-Jun-03 19:29N 47°39' W 122°22'0 0.0
2015-Jun-03 18:33N 47°39' W 122°22'0 0.0
2015-Jun-03 18:29N 47°39' W 122°22'0 0.0
2015-Jun-03 17:33N 47°39' W 122°22'0 0.0
2015-Jun-03 17:33N 47°39' W 122°22'0 0.0
2015-Jun-03 16:33N 47°39' W 122°22'0 0.0
2015-Jun-03 16:33N 47°39' W 122°22'0 0.0
2015-Jun-03 15:33N 47°39' W 122°22'0 0.0
2015-Jun-03 15:32N 47°39' W 122°22'0 0.0
2015-Jun-03 14:33N 47°39' W 122°22'0 0.0
2015-Jun-03 14:27N 47°39' W 122°22'0 0.0
2015-Jun-03 13:33N 47°39' W 122°22'0 0.0
2015-Jun-03 13:31N 47°39' W 122°22'0 0.0
2015-Jun-03 12:34N 47°39' W 122°22'0 0.0
2015-Jun-03 12:31N 47°39' W 122°22'0 0.0
2015-Jun-03 11:33N 47°39' W 122°22'0 0.0
2015-Jun-03 11:30N 47°39' W 122°22'0 0.0
2015-Jun-03 10:33N 47°39' W 122°22'0 0.0
2015-Jun-03 10:30N 47°39' W 122°22'0 0.0
2015-Jun-03 09:33N 47°39' W 122°22'0 0.0
2015-Jun-03 09:29N 47°39' W 122°22'0 0.0
2015-Jun-03 08:33N 47°39' W 122°22'0 0.0
2015-Jun-03 08:32N 47°39' W 122°22'0 0.0
2015-Jun-03 07:33N 47°39' W 122°22'0 0.0
2015-Jun-03 07:22N 47°39' W 122°22'0 0.0
2015-Jun-03 06:33N 47°39' W 122°22'0 0.0
2015-Jun-03 06:31N 47°39' W 122°22'0 0.0
2015-Jun-03 06:11N 47°39' W 122°22'0 0.0
2015-Jun-03 05:31N 47°39' W 122°22'0 0.0
2015-Jun-03 04:31N 47°39' W 122°22'0 0.0
2015-Jun-03 03:52N 47°39' W 122°22'0 0.0
2015-Jun-03 03:34N 47°39' W 122°22'0 0.0
2015-Jun-03 03:32N 47°39' W 122°22'0 0.0
2015-Jun-03 02:33N 47°39' W 122°22'0 0.0
2015-Jun-03 02:32N 47°39' W 122°22'0 0.0
2015-Jun-03 01:34N 47°39' W 122°22'0 0.0
2015-Jun-03 01:31N 47°39' W 122°22'0 0.0
2015-Jun-03 00:33N 47°39' W 122°22'0 0.0
2015-Jun-03 00:20N 47°39' W 122°22'0 0.0
2015-Jun-02 23:33N 47°39' W 122°22'0 0.0
2015-Jun-02 23:30N 47°39' W 122°22'0 0.0
2015-Jun-02 22:33N 47°39' W 122°22'0 0.0
2015-Jun-02 22:29N 47°39' W 122°22'0 0.0
2015-Jun-02 21:33N 47°39' W 122°22'0 0.0
2015-Jun-02 21:33N 47°39' W 122°22'0 0.0
2015-Jun-02 20:33N 47°39' W 122°22'0 0.0
2015-Jun-02 20:33N 47°39' W 122°22'0 0.0
2015-Jun-02 19:33N 47°39' W 122°22'0 0.0
2015-Jun-02 19:33N 47°39' W 122°22'0 0.0
2015-Jun-02 18:33N 47°39' W 122°22'0 0.0
2015-Jun-02 18:32N 47°39' W 122°22'0 0.0
2015-Jun-02 17:33N 47°39' W 122°22'0 0.0
2015-Jun-02 17:32N 47°39' W 122°22'0 0.0
2015-Jun-02 16:33N 47°39' W 122°22'0 0.0
2015-Jun-02 16:31N 47°39' W 122°22'0 0.0
2015-Jun-02 15:34N 47°39' W 122°22'0 0.0
2015-Jun-02 15:31N 47°39' W 122°22'0 0.0
2015-Jun-02 14:32N 47°39' W 122°22'0 0.0
2015-Jun-02 14:31N 47°39' W 122°22'0 0.0
2015-Jun-02 13:33N 47°39' W 122°22'0 0.0
2015-Jun-02 13:31N 47°39' W 122°22'0 0.0
2015-Jun-02 12:34N 47°39' W 122°22'0 0.0
2015-Jun-02 12:09N 47°39' W 122°22'0 0.0
2015-Jun-02 11:34N 47°39' W 122°22'0 0.0
2015-Jun-02 11:29N 47°39' W 122°22'0 0.0
2015-Jun-02 10:34N 47°39' W 122°22'0 0.0
2015-Jun-02 10:33N 47°39' W 122°22'0 0.0
2015-Jun-02 09:33N 47°39' W 122°22'0 0.0
2015-Jun-02 09:33N 47°39' W 122°22'0 0.0
2015-Jun-02 08:34N 47°39' W 122°22'0 0.0
2015-Jun-02 08:33N 47°39' W 122°22'0 0.0
2015-Jun-02 07:33N 47°39' W 122°22'0 0.0
2015-Jun-02 07:32N 47°39' W 122°22'0 0.0
2015-Jun-02 06:34N 47°39' W 122°22'0 0.0
2015-Jun-02 06:32N 47°39' W 122°22'0 0.0
2015-Jun-02 06:07N 47°39' W 122°22'0 0.0
2015-Jun-02 05:34N 47°39' W 122°22'0 0.0
2015-Jun-02 04:34N 47°39' W 122°22'0 0.0
2015-Jun-02 04:32N 47°39' W 122°22'0 0.0
2015-Jun-02 03:31N 47°39' W 122°22'0 0.0
2015-Jun-02 03:27N 47°39' W 122°22'0 0.0
2015-Jun-02 02:34N 47°39' W 122°22'0 0.0
2015-Jun-02 02:31N 47°39' W 122°22'0 0.0
2015-Jun-02 00:28N 47°39' W 122°22'0 0.0
2015-Jun-02 00:24N 47°39' W 122°22'0 0.0
2015-Jun-01 23:34N 47°39' W 122°22'0 0.0
2015-Jun-01 23:29N 47°39' W 122°22'0 0.0
2015-Jun-01 22:34N 47°39' W 122°22'0 0.0
2015-Jun-01 22:28N 47°39' W 122°22'0 0.0
2015-Jun-01 21:33N 47°39' W 122°22'0 0.0
2015-Jun-01 21:28N 47°39' W 122°22'0 0.0
2015-Jun-01 20:33N 47°39' W 122°22'0 0.0
2015-Jun-01 20:33N 47°39' W 122°22'0 0.0
2015-Jun-01 19:33N 47°39' W 122°22'0 0.0
2015-Jun-01 19:33N 47°39' W 122°22'0 0.0
2015-Jun-01 18:33N 47°39' W 122°22'0 0.0
2015-Jun-01 18:32N 47°39' W 122°22'0 0.0
2015-Jun-01 17:33N 47°39' W 122°22'0 0.0
2015-Jun-01 17:32N 47°39' W 122°22'0 0.0
2015-Jun-01 16:32N 47°39' W 122°22'0 0.0
2015-Jun-01 16:21N 47°39' W 122°22'0 0.0
2015-Jun-01 15:33N 47°39' W 122°22'0 0.0
2015-Jun-01 15:25N 47°39' W 122°22'0 0.0
2015-Jun-01 14:30N 47°39' W 122°22'0 0.0
2015-Jun-01 14:30N 47°39' W 122°22'0 0.0
2015-Jun-01 13:33N 47°39' W 122°22'0 0.0
2015-Jun-01 13:05N 47°39' W 122°22'0 0.0
2015-Jun-01 12:27N 47°39' W 122°22'0 0.0
2015-Jun-01 12:24N 47°39' W 122°22'0 0.0
2015-Jun-01 11:32N 47°39' W 122°22'0 0.0
2015-Jun-01 11:25N 47°39' W 122°22'0 0.0
2015-Jun-01 10:33N 47°39' W 122°22'0 0.0
2015-Jun-01 10:24N 47°39' W 122°22'0 0.0
2015-Jun-01 09:33N 47°39' W 122°22'0 0.0
2015-Jun-01 09:29N 47°39' W 122°22'0 0.0
2015-Jun-01 08:32N 47°39' W 122°22'0 0.0
2015-Jun-01 08:29N 47°39' W 122°22'0 0.0
2015-Jun-01 07:33N 47°39' W 122°22'0 0.0
2015-Jun-01 07:28N 47°39' W 122°22'0 0.0
2015-Jun-01 06:54N 47°39' W 122°22'0 0.0
2015-Jun-01 06:21N 47°39' W 122°22'0 0.0
2015-Jun-01 05:33N 47°39' W 122°22'0 0.0
2015-Jun-01 05:33N 47°39' W 122°22'0 0.0
2015-Jun-01 05:08N 47°39' W 122°22'0 0.0
2015-Jun-01 02:32N 47°39' W 122°22'0 0.0
2015-Jun-01 02:32N 47°39' W 122°22'0 0.0
2015-Jun-01 01:33N 47°39' W 122°22'0 0.0
2015-Jun-01 01:32N 47°39' W 122°22'0 0.0
2015-Jun-01 00:32N 47°39' W 122°22'0 0.0
2015-Jun-01 00:32N 47°39' W 122°22'0 0.0
2015-May-31 23:32N 47°39' W 122°22'0 0.0
2015-May-31 23:31N 47°39' W 122°22'0 0.0
2015-May-31 22:32N 47°39' W 122°22'0 0.0
2015-May-31 22:31N 47°39' W 122°22'0 0.0
2015-May-31 21:33N 47°39' W 122°22'0 0.0
2015-May-31 21:30N 47°39' W 122°22'0 0.0
2015-May-31 20:30N 47°39' W 122°22'0 0.0
2015-May-31 20:30N 47°39' W 122°22'0 0.0
2015-May-31 19:31N 47°39' W 122°22'0 0.0
2015-May-31 19:30N 47°39' W 122°22'0 0.0
2015-May-31 18:31N 47°39' W 122°22'0 0.0
2015-May-31 18:29N 47°39' W 122°22'0 0.0
2015-May-31 17:28N 47°39' W 122°22'0 0.0
2015-May-31 17:15N 47°39' W 122°22'0 0.0
2015-May-31 16:33N 47°39' W 122°22'0 0.0
2015-May-31 16:19N 47°39' W 122°22'0 0.0
2015-May-31 15:32N 47°39' W 122°22'0 0.0
2015-May-31 15:27N 47°39' W 122°22'0 0.0
2015-May-31 14:32N 47°39' W 122°22'0 0.0
2015-May-31 14:24N 47°39' W 122°22'0 0.0
2015-May-31 13:33N 47°39' W 122°22'0 0.0
2015-May-31 13:33N 47°39' W 122°22'0 0.0
2015-May-31 12:33N 47°39' W 122°22'0 0.0
2015-May-31 12:32N 47°39' W 122°22'0 0.0
2015-May-31 11:33N 47°39' W 122°22'0 0.0
2015-May-31 11:31N 47°39' W 122°22'0 0.0
2015-May-31 10:33N 47°39' W 122°22'0 0.0
2015-May-31 10:30N 47°39' W 122°22'0 0.0
2015-May-31 09:33N 47°39' W 122°22'0 0.0
2015-May-31 09:30N 47°39' W 122°22'0 0.0
2015-May-31 08:32N 47°39' W 122°22'0 0.0
2015-May-31 08:30N 47°39' W 122°22'0 0.0
2015-May-31 07:33N 47°39' W 122°22'0 0.0
2015-May-31 07:30N 47°39' W 122°22'0 0.0
2015-May-31 06:30N 47°39' W 122°22'0 0.0
2015-May-31 06:29N 47°39' W 122°22'0 0.0
2015-May-31 06:09N 47°39' W 122°22'0 0.0
2015-May-31 05:33N 47°39' W 122°22'0 0.0
2015-May-31 04:33N 47°39' W 122°22'0 0.0
2015-May-31 04:24N 47°39' W 122°22'0 0.0
2015-May-31 03:33N 47°39' W 122°22'0 0.0
2015-May-31 03:29N 47°39' W 122°22'0 0.0
2015-May-31 02:33N 47°39' W 122°22'0 0.0
2015-May-31 02:23N 47°39' W 122°22'0 0.0
2015-May-31 01:33N 47°39' W 122°22'0 0.0
2015-May-31 01:33N 47°39' W 122°22'0 0.0
2015-May-31 00:33N 47°39' W 122°22'0 0.0
2015-May-31 00:33N 47°39' W 122°22'0 0.0
2015-May-30 23:33N 47°39' W 122°22'0 0.0
2015-May-30 23:33N 47°39' W 122°22'0 0.0
2015-May-30 22:28N 47°39' W 122°22'0 0.0
2015-May-30 22:28N 47°39' W 122°22'0 0.0
2015-May-30 21:34N 47°39' W 122°22'0 0.0
2015-May-30 21:27N 47°39' W 122°22'0 0.0
2015-May-30 20:33N 47°39' W 122°22'0 0.0
2015-May-30 20:32N 47°39' W 122°22'0 0.0
2015-May-30 19:33N 47°39' W 122°22'0 0.0
2015-May-30 19:26N 47°39' W 122°22'0 0.0
2015-May-30 18:33N 47°39' W 122°22'0 0.0
2015-May-30 18:31N 47°39' W 122°22'0 0.0
2015-May-30 17:33N 47°39' W 122°22'0 0.0
2015-May-30 17:26N 47°39' W 122°22'0 0.0
2015-May-30 16:33N 47°39' W 122°22'0 0.0
2015-May-30 16:31N 47°39' W 122°22'0 0.0
2015-May-30 15:34N 47°39' W 122°22'0 0.0
2015-May-30 15:31N 47°39' W 122°22'0 0.0
2015-May-30 14:32N 47°39' W 122°22'0 0.0
2015-May-30 14:25N 47°39' W 122°22'0 0.0
2015-May-30 13:33N 47°39' W 122°22'0 0.0
2015-May-30 13:29N 47°39' W 122°22'0 0.0
2015-May-30 12:33N 47°39' W 122°22'0 0.0
2015-May-30 12:30N 47°39' W 122°22'0 0.0
2015-May-30 11:33N 47°39' W 122°22'0 0.0
2015-May-30 11:29N 47°39' W 122°22'0 0.0
2015-May-30 10:33N 47°39' W 122°22'0 0.0
2015-May-30 10:24N 47°39' W 122°22'0 0.0
2015-May-30 09:33N 47°39' W 122°22'0 0.0
2015-May-30 09:29N 47°39' W 122°22'0 0.0
2015-May-30 08:33N 47°39' W 122°22'0 0.0
2015-May-30 08:33N 47°39' W 122°22'0 0.0
2015-May-30 07:33N 47°39' W 122°22'0 0.0
2015-May-30 07:33N 47°39' W 122°22'0 0.0
2015-May-30 06:22N 47°39' W 122°22'0 0.0
2015-May-30 05:18N 47°39' W 122°22'0 0.0
2015-May-30 05:15N 47°39' W 122°22'0 0.0
2015-May-30 04:33N 47°39' W 122°22'0 0.0
2015-May-30 04:30N 47°39' W 122°22'0 0.0
2015-May-30 03:33N 47°39' W 122°22'0 0.0
2015-May-30 03:30N 47°39' W 122°22'0 0.0
2015-May-30 02:33N 47°39' W 122°22'0 0.0
2015-May-30 02:29N 47°39' W 122°22'0 0.0
2015-May-30 01:33N 47°39' W 122°22'0 0.1
2015-May-30 01:29N 47°39' W 122°22'0 0.0
2015-May-30 00:33N 47°39' W 122°22'0 0.0
2015-May-30 00:29N 47°39' W 122°22'0 0.0
2015-May-29 23:33N 47°39' W 122°22'0 0.0
2015-May-29 23:29N 47°39' W 122°22'0 0.0
2015-May-29 22:33N 47°39' W 122°22'0 0.0
2015-May-29 22:33N 47°39' W 122°22'0 0.0
2015-May-29 21:33N 47°39' W 122°22'0 0.0
2015-May-29 21:33N 47°39' W 122°22'0 0.0
2015-May-29 20:33N 47°39' W 122°22'0 0.0
2015-May-29 20:33N 47°39' W 122°22'0 0.0
2015-May-29 19:34N 47°39' W 122°22'0 0.0
2015-May-29 19:33N 47°39' W 122°22'0 0.0
2015-May-29 18:34N 47°39' W 122°22'0 0.0
2015-May-29 18:32N 47°39' W 122°22'0 0.0
2015-May-29 17:34N 47°39' W 122°22'0 0.0
2015-May-29 17:32N 47°39' W 122°22'0 0.0
2015-May-29 16:33N 47°39' W 122°22'0 0.0
2015-May-29 16:31N 47°39' W 122°22'0 0.0
2015-May-29 15:33N 47°39' W 122°22'0 0.0
2015-May-29 15:31N 47°39' W 122°22'0 0.0
2015-May-29 14:34N 47°39' W 122°22'0 0.0
2015-May-29 14:30N 47°39' W 122°22'0 0.0
2015-May-29 13:34N 47°39' W 122°22'0 0.0
2015-May-29 13:30N 47°39' W 122°22'0 0.0
2015-May-29 12:34N 47°39' W 122°22'0 0.0
2015-May-29 12:24N 47°39' W 122°22'0 0.0
2015-May-29 11:34N 47°39' W 122°22'0 0.0
2015-May-29 11:33N 47°39' W 122°22'0 0.0
2015-May-29 10:33N 47°39' W 122°22'0 0.0
2015-May-29 10:33N 47°39' W 122°22'0 0.0
2015-May-29 09:34N 47°39' W 122°22'0 0.0
2015-May-29 09:33N 47°39' W 122°22'0 0.0
2015-May-29 08:34N 47°39' W 122°22'0 0.0
2015-May-29 08:33N 47°39' W 122°22'0 0.0
2015-May-29 07:19N 47°39' W 122°22'0 0.0
2015-May-29 07:15N 47°39' W 122°22'0 0.0
2015-May-29 06:22N 47°39' W 122°22'0 0.0
2015-May-29 05:42N 47°39' W 122°22'0 0.0
2015-May-29 05:27N 47°39' W 122°22'0 0.0
2015-May-29 04:11N 47°39' W 122°22'0 0.0
2015-May-29 03:59N 47°39' W 122°22'0 0.0
2015-May-29 03:34N 47°39' W 122°22'0 0.0
2015-May-29 03:29N 47°39' W 122°22'0 0.0
2015-May-29 02:34N 47°39' W 122°22'0 0.0
2015-May-29 02:29N 47°39' W 122°22'0 0.0
2015-May-29 01:34N 47°39' W 122°22'0 0.0
2015-May-29 01:29N 47°39' W 122°22'0 0.0
2015-May-29 00:34N 47°39' W 122°22'0 0.0
2015-May-29 00:34N 47°39' W 122°22'0 0.0
2015-May-28 23:33N 47°39' W 122°22'0 0.0
2015-May-28 23:33N 47°39' W 122°22'0 0.0
2015-May-28 22:33N 47°39' W 122°22'0 0.0
2015-May-28 22:33N 47°39' W 122°22'0 0.0
2015-May-28 21:33N 47°39' W 122°22'0 0.0
2015-May-28 21:33N 47°39' W 122°22'0 0.0
2015-May-28 20:28N 47°39' W 122°22'0 0.0
2015-May-28 20:26N 47°39' W 122°22'0 0.0
2015-May-28 19:34N 47°39' W 122°22'0 0.0
2015-May-28 19:31N 47°39' W 122°22'0 0.0
2015-May-28 18:11N 47°39' W 122°22'0 0.0
2015-May-28 18:10N 47°39' W 122°22'0 0.0
2015-May-28 17:34N 47°39' W 122°22'0 0.0
2015-May-28 17:24N 47°39' W 122°22'0 0.0
2015-May-28 16:34N 47°39' W 122°22'0 0.0
2015-May-28 16:33N 47°39' W 122°22'0 0.0
2015-May-28 15:33N 47°39' W 122°22'0 0.0
2015-May-28 15:28N 47°39' W 122°22'0 0.0
2015-May-28 14:33N 47°39' W 122°22'0 0.0
2015-May-28 14:33N 47°39' W 122°22'0 0.0
2015-May-28 13:33N 47°39' W 122°22'0 0.0
2015-May-28 13:32N 47°39' W 122°22'0 0.0
2015-May-28 12:33N 47°39' W 122°22'0 0.0
2015-May-28 12:32N 47°39' W 122°22'0 0.0
2015-May-28 11:34N 47°39' W 122°22'0 0.0
2015-May-28 11:32N 47°39' W 122°22'0 0.0
2015-May-28 10:33N 47°39' W 122°22'0 0.0
2015-May-28 10:32N 47°39' W 122°22'0 0.0
2015-May-28 09:34N 47°39' W 122°22'0 0.0
2015-May-28 09:32N 47°39' W 122°22'0 0.0
2015-May-28 08:34N 47°39' W 122°22'0 0.0
2015-May-28 08:31N 47°39' W 122°22'0 0.0
2015-May-28 07:33N 47°39' W 122°22'0 0.0
2015-May-28 07:31N 47°39' W 122°22'0 0.0
2015-May-28 06:33N 47°39' W 122°22'0 0.0
2015-May-28 06:31N 47°39' W 122°22'  
Track history (hours):
 
Tides and Currents Weather Stations Pressure Air Temp Water Temp Dewpoint Dewpoint Depression Visibility Wind Speed Wind Dir Waves Ship Positions

Iver Foss

Owner: FOSS MARITIME CO, SEATTLE, WA. More information available from US FCC via Universal Licensing System and Coast Guard Vessel Documentation Center.

Last reported at 2015-Jun-07 06:17 UTC. Time now 2015-Jul-06 17:51 UTC.
Position N 51°33' W 127°52'.
Warning: this ship's position is 29 days out of date.

Type: Tug. MMSI: 368351000.

Date/timePositionNaut miles runAvg speedWind from/ knotsBaromVisibWave heightAir tempDewpointWater temp
2015-Jun-07 06:17N 51°33' W 127°52'17 9.9
2015-Jun-07 04:31N 51°15' W 127°53'1010.1
2015-Jun-07 03:33N 51°06' W 127°46'1111.2
2015-Jun-07 02:33N 50°59' W 127°33'1111.2
2015-Jun-07 01:33N 50°52' W 127°18'1110.6
2015-Jun-07 00:33N 50°47' W 127°04'1010.0
2015-Jun-06 23:32N 50°40' W 126°52'9 9.4
2015-Jun-06 22:32N 50°34' W 126°41'11 9.7
2015-Jun-06 21:22N 50°30' W 126°24'12311.0
2015-Jun-06 10:13N 49°19' W 123°49'710.3
2015-Jun-06 09:33N 49°15' W 123°41'1010.3
2015-Jun-06 08:33N 49°09' W 123°28'10 9.8
2015-Jun-06 07:33N 49°02' W 123°17'10 9.9
2015-Jun-06 06:33N 48°56' W 123°06'1111.1
2015-Jun-06 05:33N 48°48' W 122°53'1110.8
2015-Jun-06 04:34N 48°40' W 122°42'1212.2
2015-Jun-06 03:32N 48°28' W 122°44'30 7.5
2015-Jun-05 23:33N 47°58' W 122°34'1 8.1
2015-Jun-05 23:29N 47°58' W 122°34'8 8.5
2015-Jun-05 22:34N 47°52' W 122°27'110.0
2015-Jun-05 22:29N 47°51' W 122°27'910.3
2015-Jun-05 21:33N 47°41' W 122°27'1 9.9
2015-Jun-05 21:29N 47°41' W 122°27'7 6.8
2015-Jun-05 20:31N 47°35' W 122°21'0 0.0
2015-Jun-05 20:13N 47°35' W 122°21'0 0.0
2015-Jun-05 19:31N 47°35' W 122°21'0 0.0
2015-Jun-05 19:13N 47°35' W 122°21'0 0.0
2015-Jun-05 18:31N 47°35' W 122°21'0 0.0
2015-Jun-05 18:28N 47°35' W 122°21'0 0.0
2015-Jun-05 17:28N 47°35' W 122°21'0 0.1
2015-Jun-05 17:22N 47°35' W 122°21'3 3.5
2015-Jun-05 16:33N 47°38' W 122°23'0 0.0
2015-Jun-05 16:32N 47°38' W 122°23'0 0.0
2015-Jun-05 15:33N 47°38' W 122°23'0 0.0
2015-Jun-05 15:31N 47°38' W 122°23'0 0.0
2015-Jun-05 14:33N 47°38' W 122°23'0 0.0
2015-Jun-05 14:31N 47°38' W 122°23'0 0.0
2015-Jun-05 13:33N 47°38' W 122°23'0 0.0
2015-Jun-05 12:58N 47°38' W 122°23'0 0.0
2015-Jun-05 12:33N 47°38' W 122°23'0 0.0
2015-Jun-05 12:33N 47°38' W 122°23'0 0.0
2015-Jun-05 11:33N 47°38' W 122°23'0 0.0
2015-Jun-05 11:33N 47°38' W 122°23'0 0.0
2015-Jun-05 10:33N 47°38' W 122°23'0 0.0
2015-Jun-05 10:32N 47°38' W 122°23'0 0.0
2015-Jun-05 09:33N 47°38' W 122°23'0 0.0
2015-Jun-05 09:32N 47°38' W 122°23'0 0.0
2015-Jun-05 08:33N 47°38' W 122°23'0 0.0
2015-Jun-05 08:31N 47°38' W 122°23'0 0.0
2015-Jun-05 07:33N 47°38' W 122°23'0 0.0
2015-Jun-05 07:31N 47°38' W 122°23'0 0.0
2015-Jun-05 06:33N 47°38' W 122°23'0 0.1
2015-Jun-05 06:30N 47°38' W 122°23'0 0.0
2015-Jun-05 06:05N 47°38' W 122°23'0 0.0
2015-Jun-05 05:33N 47°38' W 122°23'0 0.0
2015-Jun-05 04:33N 47°38' W 122°23'0 0.0
2015-Jun-05 04:30N 47°38' W 122°23'0 0.0
2015-Jun-05 03:33N 47°38' W 122°23'0 0.1
2015-Jun-05 03:30N 47°38' W 122°23'0 0.0
2015-Jun-05 02:33N 47°38' W 122°23'0 0.0
2015-Jun-05 02:30N 47°38' W 122°23'0 0.0
2015-Jun-05 01:33N 47°38' W 122°23'0 0.0
2015-Jun-05 01:29N 47°38' W 122°23'0 0.0
2015-Jun-05 00:33N 47°38' W 122°23'0 0.0
2015-Jun-05 00:29N 47°38' W 122°23'0 0.0
2015-Jun-04 23:34N 47°38' W 122°23'0 0.0
2015-Jun-04 23:33N 47°38' W 122°23'0 0.0
2015-Jun-04 22:33N 47°38' W 122°23'0 0.0
2015-Jun-04 22:33N 47°38' W 122°23'0 0.0
2015-Jun-04 21:33N 47°38' W 122°23'0 0.0
2015-Jun-04 21:07N 47°38' W 122°23'0 0.0
2015-Jun-04 20:33N 47°38' W 122°23'0 0.0
2015-Jun-04 20:32N 47°38' W 122°23'0 0.4
2015-Jun-04 19:34N 47°37' W 122°23'0 8.7
2015-Jun-04 19:32N 47°37' W 122°23'1 0.5
2015-Jun-04 18:33N 47°37' W 122°23'0 5.0
2015-Jun-04 18:32N 47°37' W 122°23'2 2.1
2015-Jun-04 17:33N 47°38' W 122°25'010.6
2015-Jun-04 17:31N 47°38' W 122°26'2 2.3
2015-Jun-04 16:34N 47°40' W 122°24'0 2.8
2015-Jun-04 16:30N 47°40' W 122°23'1 1.0
2015-Jun-04 15:16N 47°39' W 122°22'0 0.0
2015-Jun-04 14:43N 47°39' W 122°22'0 0.0
2015-Jun-04 14:28N 47°39' W 122°22'0 0.0
2015-Jun-04 14:28N 47°39' W 122°22'0 0.0
2015-Jun-04 13:25N 47°39' W 122°22'0 0.0
2015-Jun-04 12:25N 47°39' W 122°22'0 0.0
2015-Jun-04 11:37N 47°39' W 122°22'0 0.0
2015-Jun-04 11:28N 47°39' W 122°22'0 0.0
2015-Jun-04 11:22N 47°39' W 122°22'0 0.0
2015-Jun-04 10:19N 47°39' W 122°22'0 0.0
2015-Jun-04 10:07N 47°39' W 122°22'0 0.0
2015-Jun-04 09:07N 47°39' W 122°22'0 0.0
2015-Jun-04 09:01N 47°39' W 122°22'0 0.0
2015-Jun-04 08:31N 47°39' W 122°22'0 0.0
2015-Jun-04 07:31N 47°39' W 122°22'0 0.0
2015-Jun-04 06:40N 47°39' W 122°22'0 0.0
2015-Jun-04 06:31N 47°39' W 122°22'0 0.0
2015-Jun-04 05:40N 47°39' W 122°22'0 0.0
2015-Jun-04 05:31N 47°39' W 122°22'0 0.0
2015-Jun-04 04:31N 47°39' W 122°22'0 0.0
2015-Jun-04 03:19N 47°39' W 122°22'0 0.0
2015-Jun-04 03:13N 47°39' W 122°22'0 0.0
2015-Jun-04 02:28N 47°39' W 122°22'0 0.0
2015-Jun-04 01:46N 47°39' W 122°22'0 0.0
2015-Jun-04 01:31N 47°39' W 122°22'0 0.0
2015-Jun-04 01:31N 47°39' W 122°22'0 0.0
2015-Jun-04 00:25N 47°39' W 122°22'0 0.0
2015-Jun-04 00:25N 47°39' W 122°22'0 0.0
2015-Jun-03 23:33N 47°39' W 122°22'0 0.0
2015-Jun-03 23:31N 47°39' W 122°22'0 0.0
2015-Jun-03 22:33N 47°39' W 122°22'0 0.0
2015-Jun-03 22:31N 47°39' W 122°22'0 0.0
2015-Jun-03 21:33N 47°39' W 122°22'0 0.0
2015-Jun-03 21:26N 47°39' W 122°22'0 0.0
2015-Jun-03 20:33N 47°39' W 122°22'0 0.0
2015-Jun-03 20:30N 47°39' W 122°22'0 0.0
2015-Jun-03 19:30N 47°39' W 122°22'0 0.0
2015-Jun-03 19:29N 47°39' W 122°22'0 0.0
2015-Jun-03 18:33N 47°39' W 122°22'0 0.0
2015-Jun-03 18:29N 47°39' W 122°22'0 0.0
2015-Jun-03 17:33N 47°39' W 122°22'0 0.0
2015-Jun-03 17:33N 47°39' W 122°22'0 0.0
2015-Jun-03 16:33N 47°39' W 122°22'0 0.0
2015-Jun-03 16:33N 47°39' W 122°22'0 0.0
2015-Jun-03 15:33N 47°39' W 122°22'0 0.0
2015-Jun-03 15:32N 47°39' W 122°22'0 0.0
2015-Jun-03 14:33N 47°39' W 122°22'0 0.0
2015-Jun-03 14:27N 47°39' W 122°22'0 0.0
2015-Jun-03 13:33N 47°39' W 122°22'0 0.0
2015-Jun-03 13:31N 47°39' W 122°22'0 0.0
2015-Jun-03 12:34N 47°39' W 122°22'0 0.0
2015-Jun-03 12:31N 47°39' W 122°22'0 0.0
2015-Jun-03 11:33N 47°39' W 122°22'0 0.0
2015-Jun-03 11:30N 47°39' W 122°22'0 0.0
2015-Jun-03 10:33N 47°39' W 122°22'0 0.0
2015-Jun-03 10:30N 47°39' W 122°22'0 0.0
2015-Jun-03 09:33N 47°39' W 122°22'0 0.0
2015-Jun-03 09:29N 47°39' W 122°22'0 0.0
2015-Jun-03 08:33N 47°39' W 122°22'0 0.0
2015-Jun-03 08:32N 47°39' W 122°22'0 0.0
2015-Jun-03 07:33N 47°39' W 122°22'0 0.0
2015-Jun-03 07:22N 47°39' W 122°22'0 0.0
2015-Jun-03 06:33N 47°39' W 122°22'0 0.0
2015-Jun-03 06:31N 47°39' W 122°22'0 0.0
2015-Jun-03 06:11N 47°39' W 122°22'0 0.0
2015-Jun-03 05:31N 47°39' W 122°22'0 0.0
2015-Jun-03 04:31N 47°39' W 122°22'0 0.0
2015-Jun-03 03:52N 47°39' W 122°22'0 0.0
2015-Jun-03 03:34N 47°39' W 122°22'0 0.0
2015-Jun-03 03:32N 47°39' W 122°22'0 0.0
2015-Jun-03 02:33N 47°39' W 122°22'0 0.0
2015-Jun-03 02:32N 47°39' W 122°22'0 0.0
2015-Jun-03 01:34N 47°39' W 122°22'0 0.0
2015-Jun-03 01:31N 47°39' W 122°22'0 0.0
2015-Jun-03 00:33N 47°39' W 122°22'0 0.0
2015-Jun-03 00:20N 47°39' W 122°22'0 0.0
2015-Jun-02 23:33N 47°39' W 122°22'0 0.0
2015-Jun-02 23:30N 47°39' W 122°22'0 0.0
2015-Jun-02 22:33N 47°39' W 122°22'0 0.0
2015-Jun-02 22:29N 47°39' W 122°22'0 0.0
2015-Jun-02 21:33N 47°39' W 122°22'0 0.0
2015-Jun-02 21:33N 47°39' W 122°22'0 0.0
2015-Jun-02 20:33N 47°39' W 122°22'0 0.0
2015-Jun-02 20:33N 47°39' W 122°22'0 0.0
2015-Jun-02 19:33N 47°39' W 122°22'0 0.0
2015-Jun-02 19:33N 47°39' W 122°22'0 0.0
2015-Jun-02 18:33N 47°39' W 122°22'0 0.0
2015-Jun-02 18:32N 47°39' W 122°22'0 0.0
2015-Jun-02 17:33N 47°39' W 122°22'0 0.0
2015-Jun-02 17:32N 47°39' W 122°22'0 0.0
2015-Jun-02 16:33N 47°39' W 122°22'0 0.0
2015-Jun-02 16:31N 47°39' W 122°22'0 0.0
2015-Jun-02 15:34N 47°39' W 122°22'0 0.0
2015-Jun-02 15:31N 47°39' W 122°22'0 0.0
2015-Jun-02 14:32N 47°39' W 122°22'0 0.0
2015-Jun-02 14:31N 47°39' W 122°22'0 0.0
2015-Jun-02 13:33N 47°39' W 122°22'0 0.0
2015-Jun-02 13:31N 47°39' W 122°22'0 0.0
2015-Jun-02 12:34N 47°39' W 122°22'0 0.0
2015-Jun-02 12:09N 47°39' W 122°22'0 0.0
2015-Jun-02 11:34N 47°39' W 122°22'0 0.0
2015-Jun-02 11:29N 47°39' W 122°22'0 0.0
2015-Jun-02 10:34N 47°39' W 122°22'0 0.0
2015-Jun-02 10:33N 47°39' W 122°22'0 0.0
2015-Jun-02 09:33N 47°39' W 122°22'0 0.0
2015-Jun-02 09:33N 47°39' W 122°22'0 0.0
2015-Jun-02 08:34N 47°39' W 122°22'0 0.0
2015-Jun-02 08:33N 47°39' W 122°22'0 0.0
2015-Jun-02 07:33N 47°39' W 122°22'0 0.0
2015-Jun-02 07:32N 47°39' W 122°22'0 0.0
2015-Jun-02 06:34N 47°39' W 122°22'0 0.0
2015-Jun-02 06:32N 47°39' W 122°22'0 0.0
2015-Jun-02 06:07N 47°39' W 122°22'0 0.0
2015-Jun-02 05:34N 47°39' W 122°22'0 0.0
2015-Jun-02 04:34N 47°39' W 122°22'0 0.0
2015-Jun-02 04:32N 47°39' W 122°22'0 0.0
2015-Jun-02 03:31N 47°39' W 122°22'0 0.0
2015-Jun-02 03:27N 47°39' W 122°22'0 0.0
2015-Jun-02 02:34N 47°39' W 122°22'0 0.0
2015-Jun-02 02:31N 47°39' W 122°22'0 0.0
2015-Jun-02 00:28N 47°39' W 122°22'0 0.0
2015-Jun-02 00:24N 47°39' W 122°22'0 0.0
2015-Jun-01 23:34N 47°39' W 122°22'0 0.0
2015-Jun-01 23:29N 47°39' W 122°22'0 0.0
2015-Jun-01 22:34N 47°39' W 122°22'0 0.0
2015-Jun-01 22:28N 47°39' W 122°22'0 0.0
2015-Jun-01 21:33N 47°39' W 122°22'0 0.0
2015-Jun-01 21:28N 47°39' W 122°22'0 0.0
2015-Jun-01 20:33N 47°39' W 122°22'0 0.0
2015-Jun-01 20:33N 47°39' W 122°22'0 0.0
2015-Jun-01 19:33N 47°39' W 122°22'0 0.0
2015-Jun-01 19:33N 47°39' W 122°22'0 0.0
2015-Jun-01 18:33N 47°39' W 122°22'0 0.0
2015-Jun-01 18:32N 47°39' W 122°22'0 0.0
2015-Jun-01 17:33N 47°39' W 122°22'0 0.0
2015-Jun-01 17:32N 47°39' W 122°22'0 0.0
2015-Jun-01 16:32N 47°39' W 122°22'0 0.0
2015-Jun-01 16:21N 47°39' W 122°22'0 0.0
2015-Jun-01 15:33N 47°39' W 122°22'0 0.0
2015-Jun-01 15:25N 47°39' W 122°22'0 0.0
2015-Jun-01 14:30N 47°39' W 122°22'0 0.0
2015-Jun-01 14:30N 47°39' W 122°22'0 0.0
2015-Jun-01 13:33N 47°39' W 122°22'0 0.0
2015-Jun-01 13:05N 47°39' W 122°22'0 0.0
2015-Jun-01 12:27N 47°39' W 122°22'0 0.0
2015-Jun-01 12:24N 47°39' W 122°22'0 0.0
2015-Jun-01 11:32N 47°39' W 122°22'0 0.0
2015-Jun-01 11:25N 47°39' W 122°22'0 0.0
2015-Jun-01 10:33N 47°39' W 122°22'0 0.0
2015-Jun-01 10:24N 47°39' W 122°22'0 0.0
2015-Jun-01 09:33N 47°39' W 122°22'0 0.0
2015-Jun-01 09:29N 47°39' W 122°22'0 0.0
2015-Jun-01 08:32N 47°39' W 122°22'0 0.0
2015-Jun-01 08:29N 47°39' W 122°22'0 0.0
2015-Jun-01 07:33N 47°39' W 122°22'0 0.0
2015-Jun-01 07:28N 47°39' W 122°22'0 0.0
2015-Jun-01 06:54N 47°39' W 122°22'0 0.0
2015-Jun-01 06:21N 47°39' W 122°22'0 0.0
2015-Jun-01 05:33N 47°39' W 122°22'0 0.0
2015-Jun-01 05:33N 47°39' W 122°22'0 0.0
2015-Jun-01 05:08N 47°39' W 122°22'0 0.0
2015-Jun-01 02:32N 47°39' W 122°22'0 0.0
2015-Jun-01 02:32N 47°39' W 122°22'0 0.0
2015-Jun-01 01:33N 47°39' W 122°22'0 0.0
2015-Jun-01 01:32N 47°39' W 122°22'0 0.0
2015-Jun-01 00:32N 47°39' W 122°22'0 0.0
2015-Jun-01 00:32N 47°39' W 122°22'0 0.0
2015-May-31 23:32N 47°39' W 122°22'0 0.0
2015-May-31 23:31N 47°39' W 122°22'0 0.0
2015-May-31 22:32N 47°39' W 122°22'0 0.0
2015-May-31 22:31N 47°39' W 122°22'0 0.0
2015-May-31 21:33N 47°39' W 122°22'0 0.0
2015-May-31 21:30N 47°39' W 122°22'0 0.0
2015-May-31 20:30N 47°39' W 122°22'0 0.0
2015-May-31 20:30N 47°39' W 122°22'0 0.0
2015-May-31 19:31N 47°39' W 122°22'0 0.0
2015-May-31 19:30N 47°39' W 122°22'0 0.0
2015-May-31 18:31N 47°39' W 122°22'0 0.0
2015-May-31 18:29N 47°39' W 122°22'0 0.0
2015-May-31 17:28N 47°39' W 122°22'0 0.0
2015-May-31 17:15N 47°39' W 122°22'0 0.0
2015-May-31 16:33N 47°39' W 122°22'0 0.0
2015-May-31 16:19N 47°39' W 122°22'0 0.0
2015-May-31 15:32N 47°39' W 122°22'0 0.0
2015-May-31 15:27N 47°39' W 122°22'0 0.0
2015-May-31 14:32N 47°39' W 122°22'0 0.0
2015-May-31 14:24N 47°39' W 122°22'0 0.0
2015-May-31 13:33N 47°39' W 122°22'0 0.0
2015-May-31 13:33N 47°39' W 122°22'0 0.0
2015-May-31 12:33N 47°39' W 122°22'0 0.0
2015-May-31 12:32N 47°39' W 122°22'0 0.0
2015-May-31 11:33N 47°39' W 122°22'0 0.0
2015-May-31 11:31N 47°39' W 122°22'0 0.0
2015-May-31 10:33N 47°39' W 122°22'0 0.0
2015-May-31 10:30N 47°39' W 122°22'0 0.0
2015-May-31 09:33N 47°39' W 122°22'0 0.0
2015-May-31 09:30N 47°39' W 122°22'0 0.0
2015-May-31 08:32N 47°39' W 122°22'0 0.0
2015-May-31 08:30N 47°39' W 122°22'0 0.0
2015-May-31 07:33N 47°39' W 122°22'0 0.0
2015-May-31 07:30N 47°39' W 122°22'0 0.0
2015-May-31 06:30N 47°39' W 122°22'0 0.0
2015-May-31 06:29N 47°39' W 122°22'0 0.0
2015-May-31 06:09N 47°39' W 122°22'0 0.0
2015-May-31 05:33N 47°39' W 122°22'0 0.0
2015-May-31 04:33N 47°39' W 122°22'0 0.0
2015-May-31 04:24N 47°39' W 122°22'0 0.0
2015-May-31 03:33N 47°39' W 122°22'0 0.0
2015-May-31 03:29N 47°39' W 122°22'0 0.0
2015-May-31 02:33N 47°39' W 122°22'0 0.0
2015-May-31 02:23N 47°39' W 122°22'0 0.0
2015-May-31 01:33N 47°39' W 122°22'0 0.0
2015-May-31 01:33N 47°39' W 122°22'0 0.0
2015-May-31 00:33N 47°39' W 122°22'0 0.0
2015-May-31 00:33N 47°39' W 122°22'0 0.0
2015-May-30 23:33N 47°39' W 122°22'0 0.0
2015-May-30 23:33N 47°39' W 122°22'0 0.0
2015-May-30 22:28N 47°39' W 122°22'0 0.0
2015-May-30 22:28N 47°39' W 122°22'0 0.0
2015-May-30 21:34N 47°39' W 122°22'0 0.0
2015-May-30 21:27N 47°39' W 122°22'0 0.0
2015-May-30 20:33N 47°39' W 122°22'0 0.0
2015-May-30 20:32N 47°39' W 122°22'0 0.0
2015-May-30 19:33N 47°39' W 122°22'0 0.0
2015-May-30 19:26N 47°39' W 122°22'0 0.0
2015-May-30 18:33N 47°39' W 122°22'0 0.0
2015-May-30 18:31N 47°39' W 122°22'0 0.0
2015-May-30 17:33N 47°39' W 122°22'0 0.0
2015-May-30 17:26N 47°39' W 122°22'0 0.0
2015-May-30 16:33N 47°39' W 122°22'0 0.0
2015-May-30 16:31N 47°39' W 122°22'0 0.0
2015-May-30 15:34N 47°39' W 122°22'0 0.0
2015-May-30 15:31N 47°39' W 122°22'0 0.0
2015-May-30 14:32N 47°39' W 122°22'0 0.0
2015-May-30 14:25N 47°39' W 122°22'0 0.0
2015-May-30 13:33N 47°39' W 122°22'0 0.0
2015-May-30 13:29N 47°39' W 122°22'0 0.0
2015-May-30 12:33N 47°39' W 122°22'0 0.0
2015-May-30 12:30N 47°39' W 122°22'0 0.0
2015-May-30 11:33N 47°39' W 122°22'0 0.0
2015-May-30 11:29N 47°39' W 122°22'0 0.0
2015-May-30 10:33N 47°39' W 122°22'0 0.0
2015-May-30 10:24N 47°39' W 122°22'0 0.0
2015-May-30 09:33N 47°39' W 122°22'0 0.0
2015-May-30 09:29N 47°39' W 122°22'0 0.0
2015-May-30 08:33N 47°39' W 122°22'0 0.0
2015-May-30 08:33N 47°39' W 122°22'0 0.0
2015-May-30 07:33N 47°39' W 122°22'0 0.0
2015-May-30 07:33N 47°39' W 122°22'0 0.0
2015-May-30 06:22N 47°39' W 122°22'0 0.0
2015-May-30 05:18N 47°39' W 122°22'0 0.0
2015-May-30 05:15N 47°39' W 122°22'0 0.0
2015-May-30 04:33N 47°39' W 122°22'0 0.0
2015-May-30 04:30N 47°39' W 122°22'0 0.0
2015-May-30 03:33N 47°39' W 122°22'0 0.0
2015-May-30 03:30N 47°39' W 122°22'0 0.0
2015-May-30 02:33N 47°39' W 122°22'0 0.0
2015-May-30 02:29N 47°39' W 122°22'0 0.0
2015-May-30 01:33N 47°39' W 122°22'0 0.1
2015-May-30 01:29N 47°39' W 122°22'0 0.0
2015-May-30 00:33N 47°39' W 122°22'0 0.0
2015-May-30 00:29N 47°39' W 122°22'0 0.0
2015-May-29 23:33N 47°39' W 122°22'0 0.0
2015-May-29 23:29N 47°39' W 122°22'0 0.0
2015-May-29 22:33N 47°39' W 122°22'0 0.0
2015-May-29 22:33N 47°39' W 122°22'0 0.0
2015-May-29 21:33N 47°39' W 122°22'0 0.0
2015-May-29 21:33N 47°39' W 122°22'0 0.0
2015-May-29 20:33N 47°39' W 122°22'0 0.0
2015-May-29 20:33N 47°39' W 122°22'0 0.0
2015-May-29 19:34N 47°39' W 122°22'0 0.0
2015-May-29 19:33N 47°39' W 122°22'0 0.0
2015-May-29 18:34N 47°39' W 122°22'0 0.0
2015-May-29 18:32N 47°39' W 122°22'0 0.0
2015-May-29 17:34N 47°39' W 122°22'0 0.0
2015-May-29 17:32N 47°39' W 122°22'0 0.0
2015-May-29 16:33N 47°39' W 122°22'0 0.0
2015-May-29 16:31N 47°39' W 122°22'0 0.0
2015-May-29 15:33N 47°39' W 122°22'0 0.0
2015-May-29 15:31N 47°39' W 122°22'0 0.0
2015-May-29 14:34N 47°39' W 122°22'0 0.0
2015-May-29 14:30N 47°39' W 122°22'0 0.0
2015-May-29 13:34N 47°39' W 122°22'0 0.0
2015-May-29 13:30N 47°39' W 122°22'0 0.0
2015-May-29 12:34N 47°39' W 122°22'0 0.0
2015-May-29 12:24N 47°39' W 122°22'0 0.0
2015-May-29 11:34N 47°39' W 122°22'0 0.0
2015-May-29 11:33N 47°39' W 122°22'0 0.0
2015-May-29 10:33N 47°39' W 122°22'0 0.0
2015-May-29 10:33N 47°39' W 122°22'0 0.0
2015-May-29 09:34N 47°39' W 122°22'0 0.0
2015-May-29 09:33N 47°39' W 122°22'0 0.0
2015-May-29 08:34N 47°39' W 122°22'0 0.0
2015-May-29 08:33N 47°39' W 122°22'0 0.0
2015-May-29 07:19N 47°39' W 122°22'0 0.0
2015-May-29 07:15N 47°39' W 122°22'0 0.0
2015-May-29 06:22N 47°39' W 122°22'0 0.0
2015-May-29 05:42N 47°39' W 122°22'0 0.0
2015-May-29 05:27N 47°39' W 122°22'0 0.0
2015-May-29 04:11N 47°39' W 122°22'0 0.0
2015-May-29 03:59N 47°39' W 122°22'0 0.0
2015-May-29 03:34N 47°39' W 122°22'0 0.0
2015-May-29 03:29N 47°39' W 122°22'0 0.0
2015-May-29 02:34N 47°39' W 122°22'0 0.0
2015-May-29 02:29N 47°39' W 122°22'0 0.0
2015-May-29 01:34N 47°39' W 122°22'0 0.0
2015-May-29 01:29N 47°39' W 122°22'0 0.0
2015-May-29 00:34N 47°39' W 122°22'0 0.0
2015-May-29 00:34N 47°39' W 122°22'0 0.0
2015-May-28 23:33N 47°39' W 122°22'0 0.0
2015-May-28 23:33N 47°39' W 122°22'0 0.0
2015-May-28 22:33N 47°39' W 122°22'0 0.0
2015-May-28 22:33N 47°39' W 122°22'0 0.0
2015-May-28 21:33N 47°39' W 122°22'0 0.0
2015-May-28 21:33N 47°39' W 122°22'0 0.0
2015-May-28 20:28N 47°39' W 122°22'0 0.0
2015-May-28 20:26N 47°39' W 122°22'0 0.0
2015-May-28 19:34N 47°39' W 122°22'0 0.0
2015-May-28 19:31N 47°39' W 122°22'0 0.0
2015-May-28 18:11N 47°39' W 122°22'0 0.0
2015-May-28 18:10N 47°39' W 122°22'0 0.0
2015-May-28 17:34N 47°39' W 122°22'0 0.0
2015-May-28 17:24N 47°39' W 122°22'0 0.0
2015-May-28 16:34N 47°39' W 122°22'0 0.0
2015-May-28 16:33N 47°39' W 122°22'0 0.0
2015-May-28 15:33N 47°39' W 122°22'0 0.0
2015-May-28 15:28N 47°39' W 122°22'0 0.0
2015-May-28 14:33N 47°39' W 122°22'0 0.0
2015-May-28 14:33N 47°39' W 122°22'0 0.0
2015-May-28 13:33N 47°39' W 122°22'0 0.0
2015-May-28 13:32N 47°39' W 122°22'0 0.0
2015-May-28 12:33N 47°39' W 122°22'0 0.0
2015-May-28 12:32N 47°39' W 122°22'0 0.0
2015-May-28 11:34N 47°39' W 122°22'0 0.0
2015-May-28 11:32N 47°39' W 122°22'0 0.0
2015-May-28 10:33N 47°39' W 122°22'0 0.0
2015-May-28 10:32N 47°39' W 122°22'0 0.0
2015-May-28 09:34N 47°39' W 122°22'0 0.0
2015-May-28 09:32N 47°39' W 122°22'0 0.0
2015-May-28 08:34N 47°39' W 122°22'0 0.0
2015-May-28 08:31N 47°39' W 122°22'0 0.0
2015-May-28 07:33N 47°39' W 122°22'0 0.0
2015-May-28 07:31N 47°39' W 122°22'0 0.0
2015-May-28 06:33N 47°39' W 122°22'0 0.0
2015-May-28 06:31N 47°39' W 122°22'  

Dump ship's entire track history